Atlanta, GA (30339)

11:28 PM EDT on July 02, 2015 (GMT -0400)
Vinings Mountain | | Change Station
CLOSE
Current Station
Personal Weather Station
Location: Vinings, GA
Elevation: 1063 ft
Nearby Weather Stations

Elev 1063 ft 33.87 °N, 84.47 °W | Updated 26 minutes ago

Mostly Cloudy
Mostly Cloudy
78.6 °F
Feels Like 81 °F
N
0.0
Wind Variable Wind from North
Gusts 0.0 mph

Today
High -- | Low -- °F
--% Chance of Precip.
Yesterday
High -- | Low -- °F
Precip. -- in
6:30 AM 8:52 PM
Full, 99% visible
Pressure 29.95 in
Visibility 10.0 miles
Clouds Scattered Clouds 12000 ft
Overcast 16000 ft
Heat Index 81 °F
Dew Point 68 °F
Humidity 71%
Rainfall -999.00 in
Snow Depth Not available.
UV 0 out of 12
Pollen 1.90 out of 12
Air Quality Not available.
Flu Activity Not available.
METAR KMGE 030258Z 25008KT 10SM SCT120 OVC160 26/21 A2998 RMK AO2A SLP142 T02620205 53004 $

More Conditions Fewer Conditions

Pressure 29.95 in
Visibility 10.0 miles
Clouds Scattered Clouds 12000 ft
Overcast 16000 ft
Heat Index 81 °F
Dew Point 68 °F
Humidity 71%
Rainfall -999.00 in
Snow Depth Not available.
UV 0 out of 12
Pollen 1.90 out of 12
Air Quality Not available.
Flu Activity Not available.
METAR KMGE 030258Z 25008KT 10SM SCT120 OVC160 26/21 A2998 RMK AO2A SLP142 T02620205 53004 $

More Conditions Fewer Conditions

10-Day Weather Forecast

×

Almanac

Astronomy

Jul. 02, 2015 Rise Set
Actual Time
Civil Twilight
Nautical Twilight
Astronomical Twilight
Moon
Length of Visible Light
Length of Day
Tomorrow will be .
, % of the Moon is Illuminated

Today's Extremes

State Highs State Lows

Community

WunderPhotos

Upload Photos

1,834,604 photos uploaded!

WunderBlogs® & News

Nearby

Air Quality

  Air Quality AQ Index Pollutant
Not available.

Snow Depth

Station Depth Elevation

Earthquake Activity

City Distance Mag. Time & Date
Minimum magnitude displayed is 2.5.

Coastal Water Temperatures

Place Temperature

Stations

Nearby Weather Stations

Station Location Temp. Windchill Dew Point Humidity Wind Precip. Elev Updated Type